SBMOSBAR

Guest
Details From SBMO - Zumbi Dos Palmares
To SBAR - SANTA MARIA
Flight Number -
Tags generated
Created
Modified
Stats Distance 116 nm / 215 km
Max Altitude 12,400 ft / 3,780 m
Waypoints 3
Social Downloads 4
Likes 0
Share VATSIM

Download

Looking for another format? Having issues loading an existing format? Contact us
Advertisement - Login to hide

Notes

Basic altitude profile: - Ascent Rate: 1500ft/min - Ascent Speed: 120kts - Cruise Altitude: 12000ft - Cruise Speed: 180kts - Descent Rate: 700ft/min - Descent Speed: 160kts Options: - Use NATs: no - Use PACOTS: no - Use low airways: yes - Use high airways: no

Route

SBMO DENDO SBAR

ID Type Via Altitude Latitude Longitude Leg Dist Tot Dist Heading (true) Name
O SBMO APT - 0 ft / 0 m -9.51081˚ -35.79168˚ - 0 nm - Zumbi Dos Palmares
DENDO FIX - 12,400 ft / 3,780 m -10.24683˚ -36.42950˚ 58 nm 58 nm 220° / 221° -
O SBAR APT - 0 ft / 0 m -10.98400˚ -37.07033˚ 58 nm 116 nm 220° / 221° SANTA MARIA

Altitude Profile

Advertisement - Login to hide

SBMO

Details ICAO SBMO (MCZ)
Name Zumbi Dos Palmares
Region Brazil
Timezone America/Maceio (UTC-3.0)
Stats Elevation 387 ft / 118 m (AMSL)
Location -9.510808° -35.791677°
Runways 1
Magnetic Variation 22.600° W

METAR

SBMO 121000Z 06009KT 9999 BKN018 26/22 Q1013

Decode

TAF

TAF SBMO 120200Z 1206/1306 02008KT 8000 SCT020 TN24/1208Z TX32/1215Z PROB30 TEMPO 1208/1210 5000 SHRA BKN015 FEW025TCU BECMG 1211/1212 04013KT BECMG 1218/1220 08010KT BECMG 1223/1301 02005KT RMK PEI

Decode

Departure Runways

ID Width Length Bearing (true) Bearing (mag) Surface Threshold Offset Overrun Length
12 148 ft / 45 m 8,528 ft / 2,599 m 100.73° 123.33° Asphalt 0 ft / 0 m 210 ft / 64 m
30 148 ft / 45 m 8,528 ft / 2,599 m 280.73° 303.33° Asphalt 0 ft / 0 m 210 ft / 64 m

SBAR

Details ICAO SBAR (AJU)
Name SANTA MARIA
Region Brazil
Timezone America/Maceio (UTC-3.0)
Stats Elevation 23 ft / 7 m (AMSL)
Location -10.984000° -37.070333°
Runways 1
Magnetic Variation 23.050° W

METAR

SBAR 121000Z 06007KT 9999 FEW017 BKN100 26/22 Q1013

Decode

TAF

TAF SBAR 120200Z 1206/1218 05006KT 7000 SCT015 TN23/1207Z TX28/1215Z PROB30 TEMPO 1208/1209 6000 SHRA BECMG 1211/1213 07010KT RMK PEI

Decode

Destination Runways

ID Width Length Bearing (true) Bearing (mag) Surface Threshold Offset Overrun Length
11 148 ft / 45 m 7,228 ft / 2,203 m 91.93° 114.98° Asphalt 0 ft / 0 m 200 ft / 61 m
29 148 ft / 45 m 7,228 ft / 2,203 m 271.92° 294.97° Asphalt 0 ft / 0 m 200 ft / 61 m

Popular Alternatives